Time;durP1;ratioP1;P1;durP2;ratioP2;P2;SDS_P1;SDS_P2;PMS_P1;PMS_P2;Temp;Humidity;BMP_temperature;BMP_pressure;BME280_temperature;BME280_humidity;BME280_pressure;Samples;Min_cycle;Max_cycle;Signal;HPM_P1;HPM_P2
2023/12/25 00:01:27;;;;;;;;;6.33;5.33;;;;;;;;5082150;28;45470;-77
2023/12/25 00:03:55;;;;;;;;;5.33;5.33;;;;;;;;5063101;28;45374;-75
2023/12/25 00:06:22;;;;;;;;;6.00;6.00;;;;;;;;5082687;28;45327;-77
2023/12/25 00:08:48;;;;;;;;;5.33;5.33;;;;;;;;5080962;28;47239;-76
2023/12/25 00:11:14;;;;;;;;;6.00;5.00;;;;;;;;5082633;28;45355;-79
2023/12/25 00:13:40;;;;;;;;;5.00;5.00;;;;;;;;5060329;28;45343;-79
2023/12/25 00:16:05;;;;;;;;;8.00;5.00;;;;;;;;5074812;27;45383;-78
2023/12/25 00:18:30;;;;;;;;;4.00;3.33;;;;;;;;5073621;28;46290;-77
2023/12/25 00:20:55;;;;;;;;;6.00;6.00;;;;;;;;5082050;28;45344;-77
2023/12/25 00:23:20;;;;;;;;;6.33;6.33;;;;;;;;5081994;28;45299;-78
2023/12/25 00:25:45;;;;;;;;;4.67;4.33;;;;;;;;5081827;28;45261;-77
2023/12/25 00:28:11;;;;;;;;;4.33;4.33;;;;;;;;5081940;28;45275;-79
2023/12/25 00:30:36;;;;;;;;;4.00;4.00;;;;;;;;5063837;28;46154;-76
2023/12/25 00:33:01;;;;;;;;;6.67;6.67;;;;;;;;5063379;28;45364;-77
2023/12/25 00:35:27;;;;;;;;;5.33;5.33;;;;;;;;5056286;28;46787;-77
2023/12/25 00:37:52;;;;;;;;;5.00;4.33;;;;;;;;5068301;28;46325;-77
2023/12/25 00:40:17;;;;;;;;;7.67;6.33;;;;;;;;5075402;28;45723;-75
2023/12/25 00:42:42;;;;;;;;;4.33;4.33;;;;;;;;5081072;28;45523;-76
2023/12/25 00:45:07;;;;;;;;;9.00;7.33;;;;;;;;5081027;28;45419;-77
2023/12/25 00:47:33;;;;;;;;;2.33;2.33;;;;;;;;5081153;28;46176;-75
2023/12/25 00:49:58;;;;;;;;;6.33;4.00;;;;;;;;5079688;28;45312;-78
2023/12/25 00:52:23;;;;;;;;;5.67;5.67;;;;;;;;5080012;28;45476;-76
2023/12/25 00:54:48;;;;;;;;;5.00;4.33;;;;;;;;5081153;28;45343;-76
2023/12/25 00:57:14;;;;;;;;;7.33;5.67;;;;;;;;5080640;28;45217;-76
2023/12/25 00:59:39;;;;;;;;;5.00;5.00;;;;;;;;5080844;28;45391;-76
2023/12/25 01:02:04;;;;;;;;;3.67;3.67;;;;;;;;5081373;28;45180;-77
2023/12/25 01:04:29;;;;;;;;;4.67;3.67;;;;;;;;5079185;28;47292;-76
2023/12/25 01:06:55;;;;;;;;;7.33;6.33;;;;;;;;5062055;28;47302;-75
2023/12/25 01:09:20;;;;;;;;;7.33;6.00;;;;;;;;5081313;28;45230;-75
2023/12/25 01:11:45;;;;;;;;;5.67;5.33;;;;;;;;5081175;28;45631;-75
2023/12/25 01:14:10;;;;;;;;;5.00;5.00;;;;;;;;5081270;28;45534;-75
2023/12/25 01:16:36;;;;;;;;;5.00;5.00;;;;;;;;5081019;28;45511;-75
2023/12/25 01:19:01;;;;;;;;;5.33;5.33;;;;;;;;5080912;28;45307;-75
2023/12/25 01:21:26;;;;;;;;;5.00;5.00;;;;;;;;5081239;28;45335;-75
2023/12/25 01:23:51;;;;;;;;;4.00;4.00;;;;;;;;5079734;28;45892;-75
2023/12/25 01:26:18;;;;;;;;;5.67;5.67;;;;;;;;5080859;28;45334;-75
2023/12/25 01:28:43;;;;;;;;;5.33;3.67;;;;;;;;5081244;28;45256;-75
2023/12/25 01:31:08;;;;;;;;;2.33;2.33;;;;;;;;5081373;28;45317;-75
2023/12/25 01:33:33;;;;;;;;;7.33;4.00;;;;;;;;5080023;28;45383;-75
2023/12/25 01:35:59;;;;;;;;;8.33;5.00;;;;;;;;5081033;28;45295;-77
2023/12/25 01:38:24;;;;;;;;;4.67;3.00;;;;;;;;5079486;28;45361;-77
2023/12/25 01:40:49;;;;;;;;;6.00;4.67;;;;;;;;5081194;28;45268;-75
2023/12/25 01:43:14;;;;;;;;;5.00;3.67;;;;;;;;5080939;28;45377;-76
2023/12/25 01:45:39;;;;;;;;;5.67;4.67;;;;;;;;5080869;28;46195;-75
2023/12/25 01:48:05;;;;;;;;;4.33;3.67;;;;;;;;5080763;28;45412;-75
2023/12/25 01:50:30;;;;;;;;;8.33;7.33;;;;;;;;5080910;28;45225;-75
2023/12/25 01:52:56;;;;;;;;;5.00;3.67;;;;;;;;5080809;28;45221;-75
2023/12/25 01:55:22;;;;;;;;;4.67;4.67;;;;;;;;5080741;28;45324;-75
2023/12/25 01:57:47;;;;;;;;;5.67;5.67;;;;;;;;5080384;28;45311;-75
2023/12/25 02:00:12;;;;;;;;;4.67;4.00;;;;;;;;5080971;28;45267;-76
2023/12/25 02:02:38;;;;;;;;;4.00;2.67;;;;;;;;5079188;28;47332;-76
2023/12/25 02:05:03;;;;;;;;;6.33;5.00;;;;;;;;5080296;27;45336;-75
2023/12/25 02:07:29;;;;;;;;;3.67;3.33;;;;;;;;5080551;28;45145;-75
2023/12/25 02:09:54;;;;;;;;;5.00;4.33;;;;;;;;5062155;28;45452;-75
2023/12/25 02:12:19;;;;;;;;;3.67;3.00;;;;;;;;5079195;28;46448;-75
2023/12/25 02:14:45;;;;;;;;;3.00;2.33;;;;;;;;5078925;28;46932;-75
2023/12/25 02:17:10;;;;;;;;;3.67;3.67;;;;;;;;5079921;28;45350;-75
2023/12/25 02:19:36;;;;;;;;;4.33;4.00;;;;;;;;5080576;28;45405;-76
2023/12/25 02:22:01;;;;;;;;;5.00;5.00;;;;;;;;5080406;28;45300;-75
2023/12/25 02:24:30;;;;;;;;;2.00;2.00;;;;;;;;5061896;28;47262;-76
2023/12/25 02:26:55;;;;;;;;;3.00;3.00;;;;;;;;5062036;28;46234;-75
2023/12/25 02:29:20;;;;;;;;;3.33;3.33;;;;;;;;5078881;28;45393;-75
2023/12/25 02:31:48;;;;;;;;;3.00;2.33;;;;;;;;5080162;28;45374;-76
2023/12/25 02:34:14;;;;;;;;;5.33;3.67;;;;;;;;5078869;28;48294;-76
2023/12/25 02:36:39;;;;;;;;;3.67;3.67;;;;;;;;5080130;28;45348;-75
2023/12/25 02:39:04;;;;;;;;;3.67;3.67;;;;;;;;5080467;28;45323;-75
2023/12/25 02:41:29;;;;;;;;;2.33;2.33;;;;;;;;5080138;28;45395;-75
2023/12/25 02:43:54;;;;;;;;;5.33;5.33;;;;;;;;5078557;28;48275;-75
2023/12/25 02:46:20;;;;;;;;;4.00;4.00;;;;;;;;5061829;28;45215;-75
2023/12/25 02:48:45;;;;;;;;;6.00;4.00;;;;;;;;5080066;28;45321;-75
2023/12/25 02:51:10;;;;;;;;;7.00;6.33;;;;;;;;5078753;28;47206;-75
2023/12/25 02:53:35;;;;;;;;;4.00;4.00;;;;;;;;5061513;28;47286;-75
2023/12/25 02:56:00;;;;;;;;;3.00;3.00;;;;;;;;5079832;28;45262;-76
2023/12/25 02:58:25;;;;;;;;;6.67;6.00;;;;;;;;5080035;28;45475;-75
2023/12/25 03:00:51;;;;;;;;;5.00;3.33;;;;;;;;5079880;28;45345;-75
2023/12/25 03:03:16;;;;;;;;;4.67;4.33;;;;;;;;5079682;28;46195;-75
2023/12/25 03:05:41;;;;;;;;;7.67;4.33;;;;;;;;5087739;27;45761;-76
2023/12/25 03:08:07;;;;;;;;;4.33;4.00;;;;;;;;5078558;28;45302;-75
2023/12/25 03:10:32;;;;;;;;;4.33;3.33;;;;;;;;5079402;28;45375;-76
2023/12/25 03:12:57;;;;;;;;;2.67;2.67;;;;;;;;5079794;28;45350;-75
2023/12/25 03:15:22;;;;;;;;;3.00;2.00;;;;;;;;5079779;28;45381;-76
2023/12/25 03:17:47;;;;;;;;;2.67;2.67;;;;;;;;5079473;28;45375;-76
2023/12/25 03:20:12;;;;;;;;;4.00;4.00;;;;;;;;5079609;28;45331;-76
2023/12/25 03:22:38;;;;;;;;;5.67;5.33;;;;;;;;5061358;28;47385;-75
2023/12/25 03:25:03;;;;;;;;;4.00;4.00;;;;;;;;5061126;28;45285;-76
2023/12/25 03:27:28;;;;;;;;;4.33;4.33;;;;;;;;5079741;28;45272;-75
2023/12/25 03:29:53;;;;;;;;;2.33;2.33;;;;;;;;5080169;28;45946;-75
2023/12/25 03:32:19;;;;;;;;;6.67;4.33;;;;;;;;5082848;28;45420;-75
2023/12/25 03:34:47;;;;;;;;;7.00;5.33;;;;;;;;5083084;28;45398;-75
2023/12/25 03:37:13;;;;;;;;;4.00;3.67;;;;;;;;5083213;28;45220;-76
2023/12/25 03:39:38;;;;;;;;;5.67;4.33;;;;;;;;5082976;28;45291;-75
2023/12/25 03:42:03;;;;;;;;;5.33;3.33;;;;;;;;5082961;28;45394;-75
2023/12/25 03:44:28;;;;;;;;;5.67;4.33;;;;;;;;5082687;28;45197;-75
2023/12/25 03:46:54;;;;;;;;;5.67;4.67;;;;;;;;5082938;28;45216;-76
2023/12/25 03:49:19;;;;;;;;;5.33;4.33;;;;;;;;5082753;28;45646;-75
2023/12/25 03:51:44;;;;;;;;;3.67;3.67;;;;;;;;5082835;28;45211;-75
2023/12/25 03:54:09;;;;;;;;;5.67;5.00;;;;;;;;5082864;28;45162;-75
2023/12/25 03:56:34;;;;;;;;;4.00;4.00;;;;;;;;5082721;28;45235;-76
2023/12/25 03:58:59;;;;;;;;;5.00;3.67;;;;;;;;5082702;28;45515;-76
2023/12/25 04:01:25;;;;;;;;;7.00;6.00;;;;;;;;5082636;28;46124;-76
2023/12/25 04:03:50;;;;;;;;;5.67;3.00;;;;;;;;5082249;28;45222;-76
2023/12/25 04:06:24;;;;;;;;;6.00;5.00;;;;;;;;5082577;28;45286;-76
2023/12/25 04:08:49;;;;;;;;;3.33;3.33;;;;;;;;5082688;28;45224;-76
2023/12/25 04:11:21;;;;;;;;;8.67;6.00;;;;;;;;5082469;28;46219;-76
2023/12/25 04:13:47;;;;;;;;;3.67;3.67;;;;;;;;5082542;27;45268;-76
2023/12/25 04:16:22;;;;;;;;;5.00;5.00;;;;;;;;5082477;28;45286;-75
2023/12/25 04:18:47;;;;;;;;;3.33;2.33;;;;;;;;5082157;27;45385;-75
2023/12/25 04:21:22;;;;;;;;;4.67;4.33;;;;;;;;5097816;27;46965;-76
2023/12/25 04:23:47;;;;;;;;;5.00;3.00;;;;;;;;5097852;27;45270;-76
2023/12/25 04:26:12;;;;;;;;;4.00;4.00;;;;;;;;5082424;27;45144;-75
2023/12/25 04:28:38;;;;;;;;;3.33;2.33;;;;;;;;5080987;28;45266;-75
2023/12/25 04:31:03;;;;;;;;;2.67;2.67;;;;;;;;5082333;28;46207;-75
2023/12/25 04:33:31;;;;;;;;;4.00;3.00;;;;;;;;5080455;28;46041;-75
2023/12/25 04:35:56;;;;;;;;;3.00;3.00;;;;;;;;5082270;28;45304;-76
2023/12/25 04:38:21;;;;;;;;;4.00;3.33;;;;;;;;5081889;28;45341;-76
2023/12/25 04:40:47;;;;;;;;;4.00;3.67;;;;;;;;5080086;28;46208;-75
2023/12/25 04:43:12;;;;;;;;;2.00;2.00;;;;;;;;5080644;28;45374;-77
2023/12/25 04:45:37;;;;;;;;;1.33;1.33;;;;;;;;5082087;28;45350;-75
2023/12/25 04:48:02;;;;;;;;;3.67;3.67;;;;;;;;5081902;28;45275;-76
2023/12/25 04:50:27;;;;;;;;;3.67;3.00;;;;;;;;5081772;28;46151;-76
2023/12/25 04:52:52;;;;;;;;;5.00;4.67;;;;;;;;5063377;28;45436;-75
2023/12/25 04:55:18;;;;;;;;;3.67;2.67;;;;;;;;5063951;28;45576;-75
2023/12/25 04:57:43;;;;;;;;;4.33;4.00;;;;;;;;5081488;28;45300;-75
2023/12/25 05:00:08;;;;;;;;;3.67;3.67;;;;;;;;5066314;28;47128;-76
2023/12/25 05:02:33;;;;;;;;;5.00;3.67;;;;;;;;5062953;28;45304;-75
2023/12/25 05:04:59;;;;;;;;;1.33;1.33;;;;;;;;5081462;28;45427;-76
2023/12/25 05:07:24;;;;;;;;;4.00;2.67;;;;;;;;5081474;28;45357;-76
2023/12/25 05:09:49;;;;;;;;;4.00;3.00;;;;;;;;5080210;28;47066;-76
2023/12/25 05:12:14;;;;;;;;;3.00;3.00;;;;;;;;5063165;28;45609;-75
2023/12/25 05:14:39;;;;;;;;;2.33;2.33;;;;;;;;5080368;28;45741;-76
2023/12/25 05:17:04;;;;;;;;;2.00;1.67;;;;;;;;5081148;28;45315;-75
2023/12/25 05:19:30;;;;;;;;;3.33;3.00;;;;;;;;5081365;28;45422;-76
2023/12/25 05:21:55;;;;;;;;;2.33;2.00;;;;;;;;5081636;28;45372;-75
2023/12/25 05:24:20;;;;;;;;;2.33;2.33;;;;;;;;5081439;28;45505;-75
2023/12/25 05:26:45;;;;;;;;;1.33;1.33;;;;;;;;5081413;28;45474;-76
2023/12/25 05:29:10;;;;;;;;;2.00;2.00;;;;;;;;5081258;28;45357;-75
2023/12/25 05:31:35;;;;;;;;;1.67;1.67;;;;;;;;5081259;28;45455;-76
2023/12/25 05:34:01;;;;;;;;;1.33;1.00;;;;;;;;5080102;28;45331;-76
2023/12/25 05:36:28;;;;;;;;;2.50;1.25;;;;;;;;5081159;28;45287;-76
2023/12/25 05:38:53;;;;;;;;;2.00;2.00;;;;;;;;5081123;28;45359;-75
2023/12/25 05:41:18;;;;;;;;;2.00;2.00;;;;;;;;5081136;28;45256;-76
2023/12/25 05:43:43;;;;;;;;;0.67;0.67;;;;;;;;5081219;28;45576;-75
2023/12/25 05:46:08;;;;;;;;;0.33;0.33;;;;;;;;5062572;28;46178;-76
2023/12/25 05:48:33;;;;;;;;;1.33;1.33;;;;;;;;5080607;28;46135;-75
2023/12/25 05:50:59;;;;;;;;;2.67;1.33;;;;;;;;5081144;28;45299;-76
2023/12/25 05:53:25;;;;;;;;;3.00;1.67;;;;;;;;5080646;28;45324;-76
2023/12/25 05:55:50;;;;;;;;;1.00;1.00;;;;;;;;5079363;28;46172;-75
2023/12/25 05:58:15;;;;;;;;;1.33;1.33;;;;;;;;5091466;27;47026;-75
2023/12/25 06:00:40;;;;;;;;;1.33;1.33;;;;;;;;5080789;28;45429;-75
2023/12/25 06:03:05;;;;;;;;;2.00;1.00;;;;;;;;5096126;27;45362;-76
2023/12/25 06:05:30;;;;;;;;;1.33;0.33;;;;;;;;5079096;28;46191;-75
2023/12/25 06:07:56;;;;;;;;;1.33;1.33;;;;;;;;5080728;28;45375;-76
2023/12/25 06:10:22;;;;;;;;;1.00;1.00;;;;;;;;5079411;28;45389;-75
2023/12/25 06:12:47;;;;;;;;;1.33;1.33;;;;;;;;5080762;27;45307;-76
2023/12/25 06:15:12;;;;;;;;;0.33;0.33;;;;;;;;5096303;27;45994;-75
2023/12/25 06:17:38;;;;;;;;;0.00;0.00;;;;;;;;5080246;28;45431;-75
2023/12/25 06:20:04;;;;;;;;;4.00;1.67;;;;;;;;5096114;27;45429;-75
2023/12/25 06:22:29;;;;;;;;;1.33;0.33;;;;;;;;5080708;27;45307;-76
2023/12/25 06:24:55;;;;;;;;;0.33;0.33;;;;;;;;5080261;28;45666;-77
2023/12/25 06:27:21;;;;;;;;;1.33;1.33;;;;;;;;5080411;27;46049;-77
2023/12/25 06:29:46;;;;;;;;;0.33;0.33;;;;;;;;5096089;27;45371;-75
2023/12/25 06:32:12;;;;;;;;;3.33;2.00;;;;;;;;5080321;27;45233;-77
2023/12/25 06:34:37;;;;;;;;;0.33;0.33;;;;;;;;5080226;27;45556;-75
2023/12/25 06:37:03;;;;;;;;;0.33;0.33;;;;;;;;5095844;27;47043;-76
2023/12/25 06:39:31;;;;;;;;;1.00;1.00;;;;;;;;5072392;28;45668;-76
2023/12/25 06:41:56;;;;;;;;;0.67;0.33;;;;;;;;5080398;28;45366;-76
2023/12/25 06:44:21;;;;;;;;;1.00;1.00;;;;;;;;5078699;28;47117;-75
2023/12/25 06:46:47;;;;;;;;;0.67;0.33;;;;;;;;5079587;28;46813;-76
2023/12/25 06:49:12;;;;;;;;;2.00;1.00;;;;;;;;5061653;28;45347;-76
2023/12/25 06:51:37;;;;;;;;;0.33;0.33;;;;;;;;5080181;28;45272;-76
2023/12/25 06:54:02;;;;;;;;;2.00;2.00;;;;;;;;5080120;28;45331;-75
2023/12/25 06:56:28;;;;;;;;;0.33;0.33;;;;;;;;5079682;28;45407;-75
2023/12/25 06:58:54;;;;;;;;;0.67;0.67;;;;;;;;5079998;28;45313;-75
2023/12/25 07:01:22;;;;;;;;;0.33;0.33;;;;;;;;5080144;28;45346;-75
2023/12/25 07:03:47;;;;;;;;;1.00;1.00;;;;;;;;5078618;28;45263;-77
2023/12/25 07:06:13;;;;;;;;;2.67;1.67;;;;;;;;5095229;27;48050;-76
2023/12/25 07:08:38;;;;;;;;;0.33;0.33;;;;;;;;5079851;28;45198;-75
2023/12/25 07:11:03;;;;;;;;;0.00;0.00;;;;;;;;5078769;28;45373;-76
2023/12/25 07:13:31;;;;;;;;;0.00;0.00;;;;;;;;5079851;28;45205;-76
2023/12/25 07:15:58;;;;;;;;;0.67;0.33;;;;;;;;5079520;27;45942;-75
2023/12/25 07:18:23;;;;;;;;;0.00;0.00;;;;;;;;5077892;28;45541;-74
2023/12/25 07:20:49;;;;;;;;;0.00;0.00;;;;;;;;5079791;28;45385;-75
2023/12/25 07:23:14;;;;;;;;;0.33;0.00;;;;;;;;5079662;28;45418;-76
2023/12/25 07:25:39;;;;;;;;;0.67;0.67;;;;;;;;5079093;28;45965;-75
2023/12/25 07:28:04;;;;;;;;;0.33;0.33;;;;;;;;5079026;28;45434;-77
2023/12/25 07:30:29;;;;;;;;;0.33;0.33;;;;;;;;5079150;28;45413;-76
2023/12/25 07:32:55;;;;;;;;;1.00;0.33;;;;;;;;5077997;28;46037;-75
2023/12/25 07:35:20;;;;;;;;;1.33;1.33;;;;;;;;5078949;28;45392;-74
2023/12/25 07:37:45;;;;;;;;;0.33;0.33;;;;;;;;5079726;28;45298;-75
2023/12/25 07:40:10;;;;;;;;;0.33;0.33;;;;;;;;5079616;28;45648;-75
2023/12/25 07:42:36;;;;;;;;;0.33;0.33;;;;;;;;5079512;28;45536;-75
2023/12/25 07:45:01;;;;;;;;;0.33;0.33;;;;;;;;5087567;27;45607;-76
2023/12/25 07:47:26;;;;;;;;;1.33;1.33;;;;;;;;5078797;28;45213;-77
2023/12/25 07:49:51;;;;;;;;;0.67;0.67;;;;;;;;5079547;28;45275;-75
2023/12/25 07:52:17;;;;;;;;;0.33;0.33;;;;;;;;5079417;28;45208;-77
2023/12/25 07:54:42;;;;;;;;;0.00;0.00;;;;;;;;5079332;28;45284;-76
2023/12/25 07:57:07;;;;;;;;;0.33;0.33;;;;;;;;5078924;28;45353;-77
2023/12/25 07:59:32;;;;;;;;;0.33;0.33;;;;;;;;5079240;28;45231;-76
2023/12/25 08:01:57;;;;;;;;;0.33;0.33;;;;;;;;5086365;27;46663;-76
2023/12/25 08:04:24;;;;;;;;;0.00;0.00;;;;;;;;5077543;28;47284;-75
2023/12/25 08:06:49;;;;;;;;;3.33;3.33;;;;;;;;5078881;28;45252;-75
2023/12/25 08:09:14;;;;;;;;;1.67;1.33;;;;;;;;5079294;28;45571;-76
2023/12/25 08:11:39;;;;;;;;;2.67;1.33;;;;;;;;5078766;28;45166;-77
2023/12/25 08:14:04;;;;;;;;;0.00;0.00;;;;;;;;5078379;28;45373;-76
2023/12/25 08:16:29;;;;;;;;;0.00;0.00;;;;;;;;5081606;28;45294;-77
2023/12/25 08:18:55;;;;;;;;;0.33;0.33;;;;;;;;5081867;28;45405;-77
2023/12/25 08:21:20;;;;;;;;;1.00;1.00;;;;;;;;5081683;28;45418;-77
2023/12/25 08:23:45;;;;;;;;;0.33;0.33;;;;;;;;5080376;28;48981;-75
2023/12/25 08:26:10;;;;;;;;;0.67;0.33;;;;;;;;5082019;28;45302;-76
2023/12/25 08:28:36;;;;;;;;;0.67;0.33;;;;;;;;5081454;28;45604;-77
2023/12/25 08:31:02;;;;;;;;;0.33;0.33;;;;;;;;5082567;28;45486;-77
2023/12/25 08:33:27;;;;;;;;;1.33;0.67;;;;;;;;5081763;28;46061;-76
2023/12/25 08:35:53;;;;;;;;;2.00;0.00;;;;;;;;5064120;28;45417;-75
2023/12/25 08:38:18;;;;;;;;;1.33;0.33;;;;;;;;5063944;28;45339;-76
2023/12/25 08:40:43;;;;;;;;;0.33;0.33;;;;;;;;5081708;28;45359;-75
2023/12/25 08:43:09;;;;;;;;;0.33;0.33;;;;;;;;5081971;28;45402;-76
2023/12/25 08:45:34;;;;;;;;;1.33;1.33;;;;;;;;5081330;28;45350;-75
2023/12/25 08:47:59;;;;;;;;;1.67;1.67;;;;;;;;5081704;28;45328;-75
2023/12/25 08:50:24;;;;;;;;;1.00;0.00;;;;;;;;5081820;28;45296;-75
2023/12/25 08:52:49;;;;;;;;;1.67;0.33;;;;;;;;5079978;28;47392;-74
2023/12/25 08:55:14;;;;;;;;;3.33;1.67;;;;;;;;5081409;28;45418;-75
2023/12/25 08:57:40;;;;;;;;;0.33;0.00;;;;;;;;5081092;28;45288;-75
2023/12/25 09:00:06;;;;;;;;;0.00;0.00;;;;;;;;5081554;28;45382;-77
2023/12/25 09:02:31;;;;;;;;;0.67;0.33;;;;;;;;5081561;28;46591;-77
2023/12/25 09:04:57;;;;;;;;;0.33;0.33;;;;;;;;5080914;28;45978;-76
2023/12/25 09:07:22;;;;;;;;;0.00;0.00;;;;;;;;5078296;28;45268;-77
2023/12/25 09:09:47;;;;;;;;;0.33;0.33;;;;;;;;5079208;28;45838;-75
2023/12/25 09:12:13;;;;;;;;;0.25;0.25;;;;;;;;5079922;28;46261;-76
2023/12/25 09:14:38;;;;;;;;;0.25;0.25;;;;;;;;5078703;28;45292;-75
2023/12/25 09:17:03;;;;;;;;;0.75;0.25;;;;;;;;5079236;28;45509;-76
2023/12/25 09:19:31;;;;;;;;;0.33;0.33;;;;;;;;5080656;28;45242;-76
2023/12/25 09:21:56;;;;;;;;;0.00;0.00;;;;;;;;5059864;28;47071;-76
2023/12/25 09:24:22;;;;;;;;;0.00;0.00;;;;;;;;5079328;28;45403;-76
2023/12/25 09:26:47;;;;;;;;;0.33;0.33;;;;;;;;5079982;28;45466;-77
2023/12/25 09:29:12;;;;;;;;;0.33;0.33;;;;;;;;5081485;28;45528;-77
2023/12/25 09:31:38;;;;;;;;;0.33;0.33;;;;;;;;5081396;28;45654;-77
2023/12/25 09:34:03;;;;;;;;;0.00;0.00;;;;;;;;5080710;28;45436;-81
2023/12/25 09:36:29;;;;;;;;;0.33;0.00;;;;;;;;5079338;28;46503;-79
2023/12/25 09:38:54;;;;;;;;;0.33;0.33;;;;;;;;5079664;28;45473;-76
2023/12/25 09:41:20;;;;;;;;;0.00;0.00;;;;;;;;5079876;28;45583;-77
2023/12/25 09:43:46;;;;;;;;;0.33;0.33;;;;;;;;5080630;28;45494;-77
2023/12/25 09:46:11;;;;;;;;;0.33;0.33;;;;;;;;5080275;28;45169;-77
2023/12/25 09:48:38;;;;;;;;;0.00;0.00;;;;;;;;5080075;28;45380;-75
2023/12/25 09:51:05;;;;;;;;;0.67;0.67;;;;;;;;5080167;28;45244;-75
2023/12/25 09:53:30;;;;;;;;;2.00;0.25;;;;;;;;5079712;28;45380;-75
2023/12/25 09:55:57;;;;;;;;;0.25;0.00;;;;;;;;5076698;28;45311;-75
2023/12/25 09:58:22;;;;;;;;;2.33;0.00;;;;;;;;5079530;28;45374;-75
2023/12/25 10:00:47;;;;;;;;;1.00;0.33;;;;;;;;5079960;28;46017;-75
2023/12/25 10:03:13;;;;;;;;;0.33;0.33;;;;;;;;5079304;28;45350;-76
2023/12/25 10:05:38;;;;;;;;;1.33;1.33;;;;;;;;5079633;28;45370;-75
2023/12/25 10:08:03;;;;;;;;;1.00;1.00;;;;;;;;5079976;28;45362;-76
2023/12/25 10:10:29;;;;;;;;;0.67;0.67;;;;;;;;5078245;28;46080;-75
2023/12/25 10:12:55;;;;;;;;;1.33;1.33;;;;;;;;5061655;28;45261;-74
2023/12/25 10:15:21;;;;;;;;;4.33;4.00;;;;;;;;5079898;28;45355;-74
2023/12/25 10:17:47;;;;;;;;;3.33;3.33;;;;;;;;5079437;28;45374;-78
2023/12/25 10:20:17;;;;;;;;;3.33;2.00;;;;;;;;5079650;28;46225;-75
2023/12/25 10:22:42;;;;;;;;;1.33;1.33;;;;;;;;5074779;28;45269;-79
2023/12/25 10:25:11;;;;;;;;;2.00;2.00;;;;;;;;5079863;28;45362;-75
2023/12/25 10:27:40;;;;;;;;;1.00;0.67;;;;;;;;5079473;28;45895;-76
2023/12/25 10:30:11;;;;;;;;;3.00;3.00;;;;;;;;5079518;28;45729;-74
2023/12/25 10:32:36;;;;;;;;;1.00;1.00;;;;;;;;5080037;28;45242;-75
2023/12/25 10:35:13;;;;;;;;;3.00;2.33;;;;;;;;5061942;28;45252;-74
2023/12/25 10:37:39;;;;;;;;;4.33;3.33;;;;;;;;5080945;27;45339;-74
2023/12/25 10:40:17;;;;;;;;;2.00;2.00;;;;;;;;5079449;28;46333;-75
2023/12/25 10:42:42;;;;;;;;;3.00;3.00;;;;;;;;5077739;28;45406;-74
2023/12/25 10:45:08;;;;;;;;;3.33;2.67;;;;;;;;5079086;28;45747;-74
2023/12/25 10:47:33;;;;;;;;;1.67;1.00;;;;;;;;5079696;28;45315;-75
2023/12/25 10:49:59;;;;;;;;;1.33;1.33;;;;;;;;5079791;28;46392;-73
2023/12/25 10:52:25;;;;;;;;;2.00;2.00;;;;;;;;5079977;28;45353;-74
2023/12/25 10:54:50;;;;;;;;;4.00;3.00;;;;;;;;5079987;28;45399;-74
2023/12/25 10:57:16;;;;;;;;;3.00;2.67;;;;;;;;5079614;28;45309;-74
2023/12/25 10:59:42;;;;;;;;;3.33;3.33;;;;;;;;5079758;28;46160;-75
2023/12/25 11:02:11;;;;;;;;;3.00;3.00;;;;;;;;5079424;27;45307;-74
2023/12/25 11:04:36;;;;;;;;;3.00;3.00;;;;;;;;5079835;28;45624;-75
2023/12/25 11:07:04;;;;;;;;;1.33;0.67;;;;;;;;5079606;28;45587;-74
2023/12/25 11:09:29;;;;;;;;;2.33;2.33;;;;;;;;5079718;28;46054;-74
2023/12/25 11:11:56;;;;;;;;;0.00;0.00;;;;;;;;5079569;28;45276;-73
2023/12/25 11:14:21;;;;;;;;;4.67;2.33;;;;;;;;5078265;28;45346;-75
2023/12/25 11:16:46;;;;;;;;;2.67;2.67;;;;;;;;5079127;28;45311;-75
2023/12/25 11:19:12;;;;;;;;;2.67;2.33;;;;;;;;5078007;28;46367;-75
2023/12/25 11:21:37;;;;;;;;;1.33;1.33;;;;;;;;5079426;28;45807;-75
2023/12/25 11:24:02;;;;;;;;;1.33;1.33;;;;;;;;5078287;28;45209;-75
2023/12/25 11:26:28;;;;;;;;;1.00;1.00;;;;;;;;5077967;28;46178;-75
2023/12/25 11:28:57;;;;;;;;;2.00;2.00;;;;;;;;5078728;28;45279;-75
2023/12/25 11:31:23;;;;;;;;;5.33;5.33;;;;;;;;5079130;28;45340;-74
2023/12/25 11:33:49;;;;;;;;;5.00;3.33;;;;;;;;5061101;28;45366;-75
2023/12/25 11:36:15;;;;;;;;;2.33;2.33;;;;;;;;5079440;28;45350;-75
2023/12/25 11:38:41;;;;;;;;;1.67;1.67;;;;;;;;5079229;28;46030;-74
2023/12/25 11:41:11;;;;;;;;;2.67;2.67;;;;;;;;5079314;28;45295;-74
2023/12/25 11:43:37;;;;;;;;;3.00;2.33;;;;;;;;5078071;28;45303;-74
2023/12/25 11:46:02;;;;;;;;;2.00;2.00;;;;;;;;5079094;28;45387;-74
2023/12/25 11:48:28;;;;;;;;;5.00;3.67;;;;;;;;5078846;28;45326;-74
2023/12/25 11:51:01;;;;;;;;;2.00;2.00;;;;;;;;5081237;28;45416;-74
2023/12/25 11:53:36;;;;;;;;;4.67;2.00;;;;;;;;5082733;28;45324;-75
2023/12/25 11:56:02;;;;;;;;;0.00;0.00;;;;;;;;5081021;28;45317;-76
2023/12/25 11:58:29;;;;;;;;;3.00;1.67;;;;;;;;5081355;28;46424;-74
2023/12/25 12:00:54;;;;;;;;;3.00;1.00;;;;;;;;5082680;28;45366;-74
2023/12/25 12:03:19;;;;;;;;;1.67;1.67;;;;;;;;5081490;28;45617;-75
2023/12/25 12:05:45;;;;;;;;;2.00;2.00;;;;;;;;5077241;28;46862;-75
2023/12/25 12:08:10;;;;;;;;;2.00;2.00;;;;;;;;5077581;28;46142;-76
2023/12/25 12:10:35;;;;;;;;;3.00;3.00;;;;;;;;5077521;28;45433;-75
2023/12/25 12:13:01;;;;;;;;;2.00;1.00;;;;;;;;5081715;28;45565;-75
2023/12/25 12:15:26;;;;;;;;;3.67;3.33;;;;;;;;5063428;28;45411;-76
2023/12/25 12:17:51;;;;;;;;;4.33;2.67;;;;;;;;5070752;28;45348;-76
2023/12/25 12:20:17;;;;;;;;;3.33;3.00;;;;;;;;5069446;28;45474;-76
2023/12/25 12:22:42;;;;;;;;;2.00;2.00;;;;;;;;5077217;28;45259;-75
2023/12/25 12:25:11;;;;;;;;;2.67;2.67;;;;;;;;5071254;28;45426;-75
2023/12/25 12:27:36;;;;;;;;;3.00;3.00;;;;;;;;5072055;28;46072;-76
2023/12/25 12:30:01;;;;;;;;;3.00;3.00;;;;;;;;5070453;28;45286;-76
2023/12/25 12:32:27;;;;;;;;;2.00;1.67;;;;;;;;5068643;28;45782;-75
2023/12/25 12:34:52;;;;;;;;;3.00;3.00;;;;;;;;5063444;28;46262;-76
2023/12/25 12:37:17;;;;;;;;;4.00;2.00;;;;;;;;5080428;28;45357;-75
2023/12/25 12:39:42;;;;;;;;;3.33;2.67;;;;;;;;5080180;28;45366;-75
2023/12/25 12:42:10;;;;;;;;;3.33;2.67;;;;;;;;5081856;28;45354;-76
2023/12/25 12:44:35;;;;;;;;;4.00;4.00;;;;;;;;5081609;28;45511;-76
2023/12/25 12:47:00;;;;;;;;;3.33;3.33;;;;;;;;5081454;27;45731;-75
2023/12/25 12:49:26;;;;;;;;;3.00;3.00;;;;;;;;5079571;28;45307;-75
2023/12/25 12:51:53;;;;;;;;;3.67;3.00;;;;;;;;5074729;28;45465;-76
2023/12/25 12:54:18;;;;;;;;;2.33;2.33;;;;;;;;5080327;28;45475;-76
2023/12/25 12:56:43;;;;;;;;;2.33;2.33;;;;;;;;5079146;28;46205;-76
2023/12/25 12:59:08;;;;;;;;;2.00;1.00;;;;;;;;5080332;28;45288;-76
2023/12/25 13:01:34;;;;;;;;;2.33;2.33;;;;;;;;5076852;28;45293;-76
2023/12/25 13:03:59;;;;;;;;;3.00;3.00;;;;;;;;5081297;28;45522;-75
2023/12/25 13:06:25;;;;;;;;;2.50;2.00;;;;;;;;5081045;28;45267;-76
2023/12/25 13:08:53;;;;;;;;;3.67;3.00;;;;;;;;5081388;28;45299;-77
2023/12/25 13:11:19;;;;;;;;;3.33;3.33;;;;;;;;5081260;28;45354;-76
2023/12/25 13:13:44;;;;;;;;;4.00;2.67;;;;;;;;5080745;28;45512;-76
2023/12/25 13:16:10;;;;;;;;;3.00;3.00;;;;;;;;5080619;28;46303;-76
2023/12/25 13:18:35;;;;;;;;;2.33;2.00;;;;;;;;5080858;28;45386;-76
2023/12/25 13:21:00;;;;;;;;;3.33;3.33;;;;;;;;5081413;28;45384;-76
2023/12/25 13:23:26;;;;;;;;;2.00;2.00;;;;;;;;5080900;28;45492;-75
2023/12/25 13:25:51;;;;;;;;;3.67;3.00;;;;;;;;5079736;28;48438;-76
2023/12/25 13:28:16;;;;;;;;;4.00;4.00;;;;;;;;5080877;28;45376;-76
2023/12/25 13:30:41;;;;;;;;;0.00;0.00;;;;;;;;5062809;28;45386;-76
2023/12/25 13:33:07;;;;;;;;;2.00;2.00;;;;;;;;5080618;28;45339;-75
2023/12/25 13:35:32;;;;;;;;;3.33;3.33;;;;;;;;5076469;28;45989;-75
2023/12/25 13:37:57;;;;;;;;;2.33;2.00;;;;;;;;5081010;28;45324;-75
2023/12/25 13:40:22;;;;;;;;;5.00;4.00;;;;;;;;5075717;28;45345;-76
2023/12/25 13:42:47;;;;;;;;;3.33;3.00;;;;;;;;5080808;28;45335;-75
2023/12/25 13:45:13;;;;;;;;;3.00;3.00;;;;;;;;5080318;27;46199;-76
2023/12/25 13:47:38;;;;;;;;;3.00;1.33;;;;;;;;5080370;28;45298;-76
2023/12/25 13:50:03;;;;;;;;;3.00;2.33;;;;;;;;5080512;28;45429;-76
2023/12/25 13:52:28;;;;;;;;;4.00;3.67;;;;;;;;5080628;28;45434;-76
2023/12/25 13:54:54;;;;;;;;;2.00;2.00;;;;;;;;5080376;28;46423;-75
2023/12/25 13:57:19;;;;;;;;;1.67;1.00;;;;;;;;5074832;28;45442;-76
2023/12/25 13:59:44;;;;;;;;;1.33;1.33;;;;;;;;5071485;28;45352;-77
2023/12/25 14:02:09;;;;;;;;;4.00;2.67;;;;;;;;5072538;28;45261;-76
2023/12/25 14:04:34;;;;;;;;;4.33;2.67;;;;;;;;5080303;28;45407;-76
2023/12/25 14:07:00;;;;;;;;;5.00;4.00;;;;;;;;5079939;27;45272;-76
2023/12/25 14:09:26;;;;;;;;;3.33;3.33;;;;;;;;5080450;28;45278;-77
2023/12/25 14:11:51;;;;;;;;;3.67;3.00;;;;;;;;5080455;28;45465;-76
2023/12/25 14:14:16;;;;;;;;;6.00;3.67;;;;;;;;5076790;28;45320;-76
2023/12/25 14:16:41;;;;;;;;;2.33;2.33;;;;;;;;5068637;28;45319;-76
2023/12/25 14:19:06;;;;;;;;;3.67;3.67;;;;;;;;5071292;28;45691;-76
2023/12/25 14:21:32;;;;;;;;;6.00;4.00;;;;;;;;5076226;28;45315;-76
2023/12/25 14:23:57;;;;;;;;;2.00;1.00;;;;;;;;5071652;28;45373;-76
2023/12/25 14:26:22;;;;;;;;;2.67;2.67;;;;;;;;5080357;28;45301;-76
2023/12/25 14:28:47;;;;;;;;;2.67;2.67;;;;;;;;5069923;28;45726;-76
2023/12/25 14:31:12;;;;;;;;;6.33;5.00;;;;;;;;5075352;28;45248;-76
2023/12/25 14:33:43;;;;;;;;;6.00;5.33;;;;;;;;5067552;28;47655;-77